Time;durP1;ratioP1;P1;durP2;ratioP2;P2;SDS_P1;SDS_P2;PMS_P1;PMS_P2;Temp;Humidity;BMP_temperature;BMP_pressure;BME280_temperature;BME280_humidity;BME280_pressure;Samples;Min_cycle;Max_cycle;Signal;HPM_P1;HPM_P2
2021/10/19 00:02:00;;;;;;;16.80;8.65;;;;;;;;;;5034630;28;20095;-93
2021/10/19 00:04:25;;;;;;;14.70;8.32;;;;;;;;;;5034697;28;20028;-93
2021/10/19 00:06:50;;;;;;;16.15;7.32;;;;;;;;;;5035665;28;20032;-94
2021/10/19 00:09:16;;;;;;;16.65;8.35;;;;;;;;;;5034521;28;20048;-92
2021/10/19 00:11:41;;;;;;;17.75;8.43;;;;;;;;;;5034400;28;20492;-94
2021/10/19 00:14:06;;;;;;;15.73;8.05;;;;;;;;;;5034530;28;20084;-94
2021/10/19 00:16:32;;;;;;;16.45;7.60;;;;;;;;;;5021551;28;20021;-94
2021/10/19 00:18:57;;;;;;;16.42;6.72;;;;;;;;;;5034301;28;20026;-94
2021/10/19 00:21:22;;;;;;;19.70;7.55;;;;;;;;;;5035452;28;20053;-95
2021/10/19 00:23:47;;;;;;;15.43;8.20;;;;;;;;;;5067597;28;20115;-93
2021/10/19 00:26:13;;;;;;;15.30;5.93;;;;;;;;;;5067658;28;20354;-93
2021/10/19 00:28:39;;;;;;;16.73;7.63;;;;;;;;;;5033925;28;20082;-94
2021/10/19 00:31:04;;;;;;;13.52;7.18;;;;;;;;;;5033728;28;20032;-93
2021/10/19 00:33:29;;;;;;;14.48;8.25;;;;;;;;;;5034155;28;20509;-94
2021/10/19 00:35:54;;;;;;;11.98;6.72;;;;;;;;;;5064291;28;20025;-94
2021/10/19 00:38:19;;;;;;;11.85;6.90;;;;;;;;;;5035095;28;20175;-93
2021/10/19 00:40:45;;;;;;;14.68;7.93;;;;;;;;;;5033950;28;20480;-93
2021/10/19 00:43:10;;;;;;;15.60;8.30;;;;;;;;;;5033935;28;20127;-94
2021/10/19 00:45:35;;;;;;;12.15;6.35;;;;;;;;;;5067329;28;20045;-93
2021/10/19 00:48:01;;;;;;;12.45;6.57;;;;;;;;;;5067247;28;20091;-93
2021/10/19 00:50:26;;;;;;;11.32;6.70;;;;;;;;;;5034047;28;20067;-94
2021/10/19 00:52:52;;;;;;;12.15;6.30;;;;;;;;;;5033858;28;20017;-94
2021/10/19 00:55:17;;;;;;;14.25;7.28;;;;;;;;;;5034429;28;20462;-94
2021/10/19 00:57:43;;;;;;;12.82;6.60;;;;;;;;;;5035052;28;20021;-94
2021/10/19 01:00:09;;;;;;;13.30;6.35;;;;;;;;;;5033398;28;20040;-93
2021/10/19 01:02:35;;;;;;;11.65;6.80;;;;;;;;;;5067101;28;20111;-93
2021/10/19 01:05:01;;;;;;;14.25;6.00;;;;;;;;;;5066855;28;20385;-94
2021/10/19 01:07:26;;;;;;;13.60;7.88;;;;;;;;;;5021153;28;20071;-94
2021/10/19 01:09:52;;;;;;;9.52;5.75;;;;;;;;;;5033432;28;20100;-93
2021/10/19 01:12:17;;;;;;;15.40;6.68;;;;;;;;;;5066920;28;20018;-93
2021/10/19 01:14:42;;;;;;;17.55;7.80;;;;;;;;;;5066712;28;20079;-94
2021/10/19 01:17:08;;;;;;;13.38;7.85;;;;;;;;;;5066757;28;20024;-93
2021/10/19 01:19:34;;;;;;;14.35;7.90;;;;;;;;;;5066656;28;20103;-93
2021/10/19 01:22:00;;;;;;;21.77;7.93;;;;;;;;;;5034363;28;20021;-93
2021/10/19 01:24:25;;;;;;;13.48;7.07;;;;;;;;;;5033294;28;20009;-94
2021/10/19 01:26:51;;;;;;;16.92;8.10;;;;;;;;;;5066770;28;20075;-94
2021/10/19 01:29:16;;;;;;;13.55;7.30;;;;;;;;;;5063964;28;20032;-94
2021/10/19 01:31:45;;;;;;;16.52;7.10;;;;;;;;;;5066614;28;20023;-93
2021/10/19 01:34:11;;;;;;;15.20;6.38;;;;;;;;;;5020302;28;20100;-93
2021/10/19 01:36:36;;;;;;;11.43;5.20;;;;;;;;;;5033140;28;20106;-93
2021/10/19 01:39:01;;;;;;;14.35;7.13;;;;;;;;;;5032999;28;20125;-93
2021/10/19 01:41:27;;;;;;;16.13;7.68;;;;;;;;;;5034032;28;20105;-93
2021/10/19 01:43:54;;;;;;;16.17;5.95;;;;;;;;;;5023897;28;20014;-94
2021/10/19 01:46:19;;;;;;;13.05;6.75;;;;;;;;;;5062810;28;20490;-93
2021/10/19 01:48:44;;;;;;;12.65;7.07;;;;;;;;;;5058935;28;20053;-93
2021/10/19 01:51:09;;;;;;;15.50;7.03;;;;;;;;;;5027417;28;20119;-93
2021/10/19 01:53:35;;;;;;;14.77;7.75;;;;;;;;;;5034105;28;20017;-94
2021/10/19 01:56:00;;;;;;;14.52;7.68;;;;;;;;;;5066297;28;20041;-93
2021/10/19 01:58:25;;;;;;;16.25;7.85;;;;;;;;;;5032963;28;20018;-93
2021/10/19 02:00:51;;;;;;;15.00;8.00;;;;;;;;;;5034223;28;20068;-94
2021/10/19 02:03:16;;;;;;;15.20;8.07;;;;;;;;;;5033971;28;20520;-94
2021/10/19 02:05:41;;;;;;;15.68;7.35;;;;;;;;;;5058327;28;20018;-94
2021/10/19 02:08:07;;;;;;;13.63;7.45;;;;;;;;;;5029482;28;20084;-94
2021/10/19 02:10:33;;;;;;;17.42;7.60;;;;;;;;;;5070117;28;20014;-94
2021/10/19 02:12:58;;;;;;;11.77;7.15;;;;;;;;;;5036996;28;20037;-93
2021/10/19 02:15:27;;;;;;;18.08;8.15;;;;;;;;;;5036631;28;20441;-94
2021/10/19 02:17:52;;;;;;;14.98;6.68;;;;;;;;;;5036568;28;20018;-93
2021/10/19 02:20:17;;;;;;;13.48;6.38;;;;;;;;;;5069693;28;20041;-93
2021/10/19 02:22:42;;;;;;;11.57;6.28;;;;;;;;;;5036615;28;20024;-92
2021/10/19 02:25:08;;;;;;;14.10;7.38;;;;;;;;;;5069988;28;20018;-94
2021/10/19 02:27:33;;;;;;;11.57;6.22;;;;;;;;;;5023841;28;20469;-94
2021/10/19 02:29:59;;;;;;;11.10;6.10;;;;;;;;;;5037349;28;20380;-93
2021/10/19 02:32:24;;;;;;;12.10;5.82;;;;;;;;;;5036051;28;20088;-93
2021/10/19 02:34:49;;;;;;;11.73;5.88;;;;;;;;;;5036862;28;20021;-93
2021/10/19 02:37:14;;;;;;;12.30;6.93;;;;;;;;;;5036369;28;20116;-94
2021/10/19 02:39:39;;;;;;;12.02;6.20;;;;;;;;;;5069680;28;20022;-93
2021/10/19 02:42:05;;;;;;;10.10;5.63;;;;;;;;;;5056129;28;20014;-93
2021/10/19 02:44:30;;;;;;;9.35;5.03;;;;;;;;;;5035468;28;20026;-94
2021/10/19 02:46:55;;;;;;;9.38;5.45;;;;;;;;;;5036195;28;20013;-93
2021/10/19 02:49:20;;;;;;;15.10;5.85;;;;;;;;;;5024459;28;20029;-93
2021/10/19 02:51:45;;;;;;;13.52;5.43;;;;;;;;;;5068732;28;20021;-92
2021/10/19 02:54:11;;;;;;;8.82;5.22;;;;;;;;;;5036084;28;20022;-93
2021/10/19 02:56:37;;;;;;;11.88;6.38;;;;;;;;;;5037097;28;20457;-93
2021/10/19 02:59:02;;;;;;;9.13;5.05;;;;;;;;;;5035905;28;20029;-92
2021/10/19 03:01:27;;;;;;;11.05;5.03;;;;;;;;;;5035994;28;20052;-93
2021/10/19 03:03:53;;;;;;;8.20;4.95;;;;;;;;;;5035916;28;20068;-92
2021/10/19 03:06:18;;;;;;;7.65;4.45;;;;;;;;;;5069098;28;20445;-92
2021/10/19 03:08:43;;;;;;;14.73;5.18;;;;;;;;;;5036821;28;20013;-93
2021/10/19 03:11:08;;;;;;;15.73;5.07;;;;;;;;;;5035541;28;20493;-93
2021/10/19 03:13:34;;;;;;;10.95;4.60;;;;;;;;;;5035619;28;20086;-93
2021/10/19 03:15:59;;;;;;;10.88;4.70;;;;;;;;;;5035800;28;20025;-92
2021/10/19 03:18:24;;;;;;;10.07;4.68;;;;;;;;;;5068687;28;20556;-94
2021/10/19 03:20:49;;;;;;;8.65;4.60;;;;;;;;;;5036606;28;20021;-92
2021/10/19 03:23:16;;;;;;;6.03;4.00;;;;;;;;;;5068833;28;20024;-92
2021/10/19 03:25:41;;;;;;;10.85;5.10;;;;;;;;;;5035398;28;20043;-93
2021/10/19 03:28:06;;;;;;;6.75;3.83;;;;;;;;;;5035466;28;20017;-93
2021/10/19 03:30:31;;;;;;;7.97;4.47;;;;;;;;;;5036487;28;20083;-93
2021/10/19 03:32:57;;;;;;;8.00;4.57;;;;;;;;;;5035502;28;20053;-93
2021/10/19 03:35:22;;;;;;;10.05;4.55;;;;;;;;;;5036225;28;20037;-93
2021/10/19 03:37:47;;;;;;;6.25;3.75;;;;;;;;;;5035177;28;20020;-92
2021/10/19 03:40:12;;;;;;;8.00;4.40;;;;;;;;;;5036324;28;20388;-93
2021/10/19 03:42:41;;;;;;;7.18;3.85;;;;;;;;;;5035119;28;20104;-93
2021/10/19 03:45:07;;;;;;;7.28;4.30;;;;;;;;;;5035283;28;20017;-93
2021/10/19 03:47:32;;;;;;;7.20;3.70;;;;;;;;;;5068402;28;20017;-93
2021/10/19 03:49:57;;;;;;;6.65;4.25;;;;;;;;;;5034949;28;20026;-92
2021/10/19 03:52:22;;;;;;;7.45;3.95;;;;;;;;;;5034941;28;20044;-93
2021/10/19 03:54:47;;;;;;;10.43;3.47;;;;;;;;;;5034893;28;20032;-93
2021/10/19 03:57:13;;;;;;;8.80;4.35;;;;;;;;;;5036107;28;20029;-93
2021/10/19 03:59:38;;;;;;;9.57;3.70;;;;;;;;;;5035796;28;20481;-93
2021/10/19 04:02:03;;;;;;;8.48;4.18;;;;;;;;;;5035952;28;20071;-93
2021/10/19 04:04:29;;;;;;;7.93;4.18;;;;;;;;;;5034812;28;20017;-92
2021/10/19 04:06:54;;;;;;;9.65;3.92;;;;;;;;;;5034409;28;20082;-92
2021/10/19 04:09:19;;;;;;;7.82;4.10;;;;;;;;;;5058376;28;20029;-93
2021/10/19 04:11:44;;;;;;;8.43;3.92;;;;;;;;;;5030395;28;20036;-93
2021/10/19 04:14:09;;;;;;;9.27;4.00;;;;;;;;;;5035720;28;20400;-92
2021/10/19 04:16:35;;;;;;;7.55;3.13;;;;;;;;;;5034590;28;20021;-92
2021/10/19 04:19:00;;;;;;;8.48;3.83;;;;;;;;;;5067666;28;20021;-92
2021/10/19 04:21:26;;;;;;;9.30;4.07;;;;;;;;;;5034378;28;20028;-93
2021/10/19 04:23:51;;;;;;;6.00;3.08;;;;;;;;;;5034375;28;20087;-93
2021/10/19 04:26:16;;;;;;;6.38;3.55;;;;;;;;;;5067691;28;20018;-95
2021/10/19 04:28:43;;;;;;;7.53;4.25;;;;;;;;;;5034075;28;20029;-93
2021/10/19 04:31:08;;;;;;;12.48;3.85;;;;;;;;;;5033716;28;20076;-93
2021/10/19 04:33:34;;;;;;;6.43;3.53;;;;;;;;;;5067418;28;20021;-93
2021/10/19 04:35:59;;;;;;;6.80;3.45;;;;;;;;;;5053625;28;20148;-93
2021/10/19 04:38:24;;;;;;;6.70;3.53;;;;;;;;;;5067336;28;20021;-94
2021/10/19 04:40:50;;;;;;;7.80;3.28;;;;;;;;;;5067333;28;20013;-93
2021/10/19 04:43:15;;;;;;;8.43;4.00;;;;;;;;;;5034068;28;20018;-93
2021/10/19 04:45:40;;;;;;;5.53;3.38;;;;;;;;;;5035143;28;20461;-93
2021/10/19 04:48:05;;;;;;;7.20;3.80;;;;;;;;;;5033888;28;20017;-93
2021/10/19 04:50:30;;;;;;;8.35;3.50;;;;;;;;;;5067339;28;20017;-92
2021/10/19 04:52:56;;;;;;;5.57;3.20;;;;;;;;;;5053066;28;20046;-94
2021/10/19 04:55:21;;;;;;;7.03;3.63;;;;;;;;;;5035018;28;20052;-92
2021/10/19 04:57:46;;;;;;;7.05;4.13;;;;;;;;;;5033668;28;20108;-93
2021/10/19 05:00:12;;;;;;;6.07;3.42;;;;;;;;;;5052809;28;20029;-93
2021/10/19 05:02:47;;;;;;;6.22;3.67;;;;;;;;;;5033886;28;20026;-93
2021/10/19 05:05:16;;;;;;;8.35;3.38;;;;;;;;;;5033654;28;20025;-93
2021/10/19 05:07:41;;;;;;;8.18;3.60;;;;;;;;;;5033574;28;20481;-92
2021/10/19 05:10:07;;;;;;;6.75;3.47;;;;;;;;;;5033489;28;20092;-93
2021/10/19 05:12:32;;;;;;;6.20;3.30;;;;;;;;;;5033524;28;20026;-93
2021/10/19 05:14:57;;;;;;;10.50;3.95;;;;;;;;;;5033373;28;20030;-93
2021/10/19 05:17:22;;;;;;;9.15;4.53;;;;;;;;;;5033456;28;20028;-93
2021/10/19 05:19:48;;;;;;;7.95;4.00;;;;;;;;;;5034470;28;20021;-93
2021/10/19 05:22:13;;;;;;;10.48;4.20;;;;;;;;;;5066533;28;20029;-93
2021/10/19 05:24:38;;;;;;;7.47;4.05;;;;;;;;;;5033316;28;20017;-93
2021/10/19 05:27:03;;;;;;;8.50;4.50;;;;;;;;;;5033008;28;20014;-93
2021/10/19 05:29:30;;;;;;;12.77;5.05;;;;;;;;;;5033165;28;20064;-94
2021/10/19 05:31:55;;;;;;;9.07;4.53;;;;;;;;;;5033336;28;20037;-93
2021/10/19 05:34:20;;;;;;;8.40;4.68;;;;;;;;;;5066619;28;20021;-93
2021/10/19 05:36:45;;;;;;;9.73;4.25;;;;;;;;;;5066589;28;20028;-93
2021/10/19 05:39:10;;;;;;;7.97;4.55;;;;;;;;;;5066364;28;20024;-94
2021/10/19 05:41:36;;;;;;;14.57;4.60;;;;;;;;;;5034008;28;20014;-93
2021/10/19 05:44:01;;;;;;;7.22;4.22;;;;;;;;;;5033404;28;20373;-93
2021/10/19 05:46:26;;;;;;;7.78;4.28;;;;;;;;;;5033113;28;20017;-92
2021/10/19 05:48:52;;;;;;;8.68;4.82;;;;;;;;;;5066468;28;20025;-93
2021/10/19 05:51:17;;;;;;;10.65;4.95;;;;;;;;;;5066335;28;20030;-93
2021/10/19 05:53:42;;;;;;;13.38;6.32;;;;;;;;;;5033141;28;20032;-94
2021/10/19 05:56:08;;;;;;;12.30;6.47;;;;;;;;;;5033022;28;20380;-94
2021/10/19 05:58:33;;;;;;;12.60;6.10;;;;;;;;;;5033911;28;20025;-93
2021/10/19 06:00:58;;;;;;;10.48;5.97;;;;;;;;;;5033895;28;20338;-93
2021/10/19 06:03:23;;;;;;;12.05;6.18;;;;;;;;;;5032821;28;20024;-92
2021/10/19 06:05:48;;;;;;;11.05;5.93;;;;;;;;;;5032975;28;20160;-93
2021/10/19 06:08:14;;;;;;;16.55;6.32;;;;;;;;;;5066234;28;20523;-93
2021/10/19 06:10:39;;;;;;;12.60;5.72;;;;;;;;;;5034206;28;20420;-93
2021/10/19 06:13:04;;;;;;;11.32;5.75;;;;;;;;;;5033833;28;20473;-92
2021/10/19 06:15:29;;;;;;;15.15;6.07;;;;;;;;;;5032478;28;20025;-93
2021/10/19 06:17:54;;;;;;;9.50;5.53;;;;;;;;;;5035505;28;20064;-93
2021/10/19 06:20:20;;;;;;;9.45;5.20;;;;;;;;;;5031731;28;20548;-93
2021/10/19 06:22:46;;;;;;;11.15;5.28;;;;;;;;;;5046086;28;20014;-93
2021/10/19 06:25:11;;;;;;;9.48;5.60;;;;;;;;;;5063216;28;20108;-93
2021/10/19 06:27:36;;;;;;;10.55;5.72;;;;;;;;;;5066069;28;20097;-94
2021/10/19 06:30:03;;;;;;;11.68;6.20;;;;;;;;;;5074195;28;20036;-93
2021/10/19 06:32:28;;;;;;;9.77;5.50;;;;;;;;;;5033460;28;20461;-92
2021/10/19 06:34:53;;;;;;;11.95;5.70;;;;;;;;;;5032740;28;20029;-93
2021/10/19 06:37:18;;;;;;;9.32;5.68;;;;;;;;;;5034029;28;20029;-92
2021/10/19 06:39:44;;;;;;;9.60;5.40;;;;;;;;;;5035846;28;20572;-93
2021/10/19 06:42:09;;;;;;;11.18;5.63;;;;;;;;;;5034906;28;20021;-93
2021/10/19 06:44:34;;;;;;;12.10;5.72;;;;;;;;;;5032392;28;20028;-93
2021/10/19 06:46:59;;;;;;;16.50;7.15;;;;;;;;;;5032264;28;20028;-93
2021/10/19 06:49:24;;;;;;;13.63;6.40;;;;;;;;;;5032611;28;20018;-91
2021/10/19 06:51:50;;;;;;;11.00;6.38;;;;;;;;;;5065641;28;20088;-93
2021/10/19 06:54:15;;;;;;;10.07;6.03;;;;;;;;;;5068261;28;20025;-93
2021/10/19 06:56:40;;;;;;;14.27;6.85;;;;;;;;;;5069325;28;20045;-93
2021/10/19 06:59:05;;;;;;;14.27;6.60;;;;;;;;;;5035936;28;20473;-93
2021/10/19 07:01:30;;;;;;;11.07;6.75;;;;;;;;;;5069223;28;20013;-93
2021/10/19 07:03:56;;;;;;;10.40;5.68;;;;;;;;;;5069233;28;20025;-93
2021/10/19 07:06:21;;;;;;;10.10;5.93;;;;;;;;;;5036954;28;20063;-93
2021/10/19 07:08:46;;;;;;;10.52;5.78;;;;;;;;;;5035867;28;20025;-93
2021/10/19 07:11:11;;;;;;;10.55;6.45;;;;;;;;;;5069003;28;20021;-93
2021/10/19 07:13:36;;;;;;;12.63;6.85;;;;;;;;;;5069018;28;20095;-93
2021/10/19 07:16:02;;;;;;;9.93;5.93;;;;;;;;;;5036893;28;20024;-92
2021/10/19 07:18:27;;;;;;;13.07;6.38;;;;;;;;;;5036602;28;20021;-93
2021/10/19 07:20:53;;;;;;;10.68;6.03;;;;;;;;;;5036778;28;20017;-93
2021/10/19 07:23:19;;;;;;;9.02;5.07;;;;;;;;;;5068989;28;20029;-93
2021/10/19 07:25:44;;;;;;;10.02;5.22;;;;;;;;;;5035510;28;20013;-93
2021/10/19 07:28:09;;;;;;;11.25;5.78;;;;;;;;;;5068708;28;20374;-92
2021/10/19 07:30:36;;;;;;;10.73;5.93;;;;;;;;;;5053859;28;20540;-93
2021/10/19 07:33:01;;;;;;;12.13;6.35;;;;;;;;;;5057759;28;20022;-94
2021/10/19 07:35:26;;;;;;;10.70;6.47;;;;;;;;;;5068577;28;20025;-93
2021/10/19 07:37:52;;;;;;;12.63;4.88;;;;;;;;;;5036369;28;20017;-93
2021/10/19 07:40:19;;;;;;;10.77;5.63;;;;;;;;;;5035090;28;20053;-93
2021/10/19 07:42:44;;;;;;;14.68;5.65;;;;;;;;;;5034938;28;20018;-94
2021/10/19 07:45:10;;;;;;;9.68;5.40;;;;;;;;;;5055793;28;20053;-92
2021/10/19 07:47:39;;;;;;;13.60;5.70;;;;;;;;;;5036760;28;20061;-93
2021/10/19 07:50:05;;;;;;;17.75;5.47;;;;;;;;;;5068372;28;20033;-93
2021/10/19 07:52:30;;;;;;;12.27;5.85;;;;;;;;;;5068326;28;20025;-94
2021/10/19 07:54:55;;;;;;;13.05;5.05;;;;;;;;;;5068190;28;20539;-93
2021/10/19 07:57:20;;;;;;;14.77;5.32;;;;;;;;;;5036100;28;20056;-92
2021/10/19 07:59:46;;;;;;;11.45;5.13;;;;;;;;;;5067868;28;20108;-93
2021/10/19 08:02:11;;;;;;;8.68;3.75;;;;;;;;;;5034964;28;20039;-93
2021/10/19 08:04:36;;;;;;;9.50;4.82;;;;;;;;;;5054868;28;20076;-92
2021/10/19 08:07:01;;;;;;;7.47;4.75;;;;;;;;;;5033798;28;20037;-93
2021/10/19 08:09:27;;;;;;;9.18;5.03;;;;;;;;;;5034858;28;20381;-92
2021/10/19 08:11:52;;;;;;;15.65;5.38;;;;;;;;;;5035556;28;20480;-93
2021/10/19 08:14:18;;;;;;;8.25;4.95;;;;;;;;;;5034794;28;20025;-93
2021/10/19 08:16:43;;;;;;;15.13;6.00;;;;;;;;;;5035612;28;20022;-93
2021/10/19 08:19:09;;;;;;;12.05;5.60;;;;;;;;;;5034533;28;20534;-94
2021/10/19 08:21:34;;;;;;;13.38;5.78;;;;;;;;;;5034473;28;20112;-93
2021/10/19 08:24:00;;;;;;;21.13;7.00;;;;;;;;;;5062906;28;20413;-93
2021/10/19 08:26:30;;;;;;;21.42;7.00;;;;;;;;;;5058402;28;20010;-93
2021/10/19 08:28:59;;;;;;;13.60;6.60;;;;;;;;;;5065833;28;20037;-93
2021/10/19 08:31:24;;;;;;;15.15;6.45;;;;;;;;;;5034328;28;20021;-93
2021/10/19 08:33:50;;;;;;;19.17;7.18;;;;;;;;;;5050789;28;20028;-93
2021/10/19 08:36:15;;;;;;;21.77;7.28;;;;;;;;;;5067692;28;20021;-92
2021/10/19 08:38:41;;;;;;;22.48;7.03;;;;;;;;;;5035136;28;20109;-93
2021/10/19 08:41:07;;;;;;;34.70;8.82;;;;;;;;;;5035063;28;20091;-92
2021/10/19 08:43:32;;;;;;;32.70;9.50;;;;;;;;;;5034020;28;20049;-93
2021/10/19 08:45:57;;;;;;;31.80;8.98;;;;;;;;;;5035134;28;20017;-93
2021/10/19 08:48:22;;;;;;;27.85;9.57;;;;;;;;;;5035200;28;20361;-93
2021/10/19 08:50:47;;;;;;;31.00;10.15;;;;;;;;;;5067154;28;20025;-93
2021/10/19 08:53:13;;;;;;;31.40;10.20;;;;;;;;;;5033773;28;20488;-93
2021/10/19 08:55:38;;;;;;;34.60;12.05;;;;;;;;;;5033654;28;20021;-93
2021/10/19 08:58:04;;;;;;;33.88;10.48;;;;;;;;;;5033683;28;20443;-93
2021/10/19 09:00:30;;;;;;;28.77;10.45;;;;;;;;;;5033782;28;20033;-93
2021/10/19 09:02:55;;;;;;;35.35;10.88;;;;;;;;;;5033668;28;20473;-93
2021/10/19 09:05:22;;;;;;;42.75;10.57;;;;;;;;;;5035318;28;20055;-93
2021/10/19 09:08:08;;;;;;;38.10;11.48;;;;;;;;;;5067032;28;20528;-92
2021/10/19 09:10:35;;;;;;;44.72;11.63;;;;;;;;;;5052844;28;20499;-93
2021/10/19 09:13:01;;;;;;;43.88;13.23;;;;;;;;;;5033518;28;20032;-93
2021/10/19 09:15:27;;;;;;;41.78;13.88;;;;;;;;;;5033383;28;20124;-92
2021/10/19 09:17:53;;;;;;;48.05;14.68;;;;;;;;;;5033368;28;20048;-92
2021/10/19 09:20:19;;;;;;;49.20;14.23;;;;;;;;;;5034086;28;20057;-93
2021/10/19 09:22:54;;;;;;;42.58;14.45;;;;;;;;;;5033481;28;20068;-92
2021/10/19 09:25:23;;;;;;;43.80;14.38;;;;;;;;;;5033354;28;20075;-93
2021/10/19 09:27:48;;;;;;;49.88;13.90;;;;;;;;;;5033447;28;20048;-93
2021/10/19 09:30:13;;;;;;;50.50;15.35;;;;;;;;;;5033393;28;20049;-92
2021/10/19 09:32:48;;;;;;;49.90;15.35;;;;;;;;;;5033205;28;20024;-92
2021/10/19 09:35:19;;;;;;;50.53;15.27;;;;;;;;;;5034375;28;20037;-94
2021/10/19 09:37:54;;;;;;;52.42;14.63;;;;;;;;;;5033078;28;20485;-92
2021/10/19 09:40:28;;;;;;;53.05;14.55;;;;;;;;;;5020173;28;20037;-93
2021/10/19 09:42:57;;;;;;;58.88;15.82;;;;;;;;;;5032677;28;20026;-92
2021/10/19 09:45:24;;;;;;;48.38;13.68;;;;;;;;;;5033061;28;20385;-93
2021/10/19 09:47:50;;;;;;;47.47;14.18;;;;;;;;;;5033143;28;20071;-93
2021/10/19 09:50:16;;;;;;;46.38;13.43;;;;;;;;;;5013211;28;20037;-92
2021/10/19 09:52:43;;;;;;;46.30;13.38;;;;;;;;;;5027156;28;20457;-94
2021/10/19 09:55:12;;;;;;;50.08;14.48;;;;;;;;;;5066049;28;20123;-92
2021/10/19 09:57:38;;;;;;;50.08;16.00;;;;;;;;;;5033123;28;20097;-92
2021/10/19 10:00:04;;;;;;;53.97;15.48;;;;;;;;;;5032650;28;20053;-93
2021/10/19 10:02:30;;;;;;;46.72;14.18;;;;;;;;;;5032801;28;20025;-93
2021/10/19 10:04:55;;;;;;;44.35;14.32;;;;;;;;;;5033666;28;20021;-93
2021/10/19 10:07:21;;;;;;;47.53;13.93;;;;;;;;;;5033839;28;20036;-93
2021/10/19 10:09:47;;;;;;;47.20;15.93;;;;;;;;;;5034025;28;20021;-92
2021/10/19 10:12:12;;;;;;;46.25;15.43;;;;;;;;;;5032700;28;20483;-93
2021/10/19 10:14:44;;;;;;;46.75;15.90;;;;;;;;;;5032891;28;20083;-93
2021/10/19 10:17:10;;;;;;;51.28;15.90;;;;;;;;;;5033879;28;20017;-93
2021/10/19 10:19:35;;;;;;;51.33;15.77;;;;;;;;;;5032674;28;20026;-93
2021/10/19 10:22:03;;;;;;;53.40;15.45;;;;;;;;;;5032597;28;20026;-92
2021/10/19 10:24:29;;;;;;;53.80;16.98;;;;;;;;;;5033925;28;20460;-93
2021/10/19 10:27:12;;;;;;;53.05;16.63;;;;;;;;;;5031990;28;20017;-93
2021/10/19 10:29:48;;;;;;;53.08;16.98;;;;;;;;;;5030978;28;20029;-93
2021/10/19 10:32:20;;;;;;;53.28;15.25;;;;;;;;;;5069863;28;20029;-93
2021/10/19 10:34:45;;;;;;;51.67;16.80;;;;;;;;;;5037587;28;20040;-93
2021/10/19 10:37:12;;;;;;;61.67;18.48;;;;;;;;;;5037045;28;20040;-92
2021/10/19 10:39:45;;;;;;;60.28;17.77;;;;;;;;;;5037449;28;20021;-92
2021/10/19 10:42:11;;;;;;;52.65;17.25;;;;;;;;;;5036313;28;20048;-93
2021/10/19 10:44:40;;;;;;;46.58;15.95;;;;;;;;;;5036267;28;20014;-92
2021/10/19 10:47:05;;;;;;;45.10;15.40;;;;;;;;;;5036391;28;20014;-92
2021/10/19 10:49:34;;;;;;;57.60;15.50;;;;;;;;;;5068714;28;20033;-93
2021/10/19 10:52:02;;;;;;;61.63;17.23;;;;;;;;;;5036251;28;20022;-93
2021/10/19 10:54:28;;;;;;;57.53;17.58;;;;;;;;;;5048103;28;20518;-93
2021/10/19 10:56:54;;;;;;;57.47;16.63;;;;;;;;;;5053032;28;20108;-89
2021/10/19 10:59:23;;;;;;;53.20;16.80;;;;;;;;;;5035711;28;20128;-90
2021/10/19 11:01:48;;;;;;;56.53;17.08;;;;;;;;;;5036372;28;20488;-89
2021/10/19 11:04:13;;;;;;;57.63;16.27;;;;;;;;;;5035615;28;20025;-90
2021/10/19 11:06:40;;;;;;;54.58;17.50;;;;;;;;;;5035411;28;20017;-89
2021/10/19 11:09:12;;;;;;;47.58;16.55;;;;;;;;;;5029515;28;20577;-90
2021/10/19 11:11:39;;;;;;;45.70;15.07;;;;;;;;;;5030781;28;20392;-90
2021/10/19 11:14:14;;;;;;;53.03;16.30;;;;;;;;;;5036359;28;20021;-91
2021/10/19 11:16:48;;;;;;;47.78;15.40;;;;;;;;;;5035617;28;20028;-91
2021/10/19 11:19:25;;;;;;;51.20;16.52;;;;;;;;;;5035858;28;20041;-91
2021/10/19 11:21:51;;;;;;;48.35;14.77;;;;;;;;;;5035666;28;20048;-92
2021/10/19 11:24:17;;;;;;;45.35;16.50;;;;;;;;;;5035804;28;20036;-91
2021/10/19 11:26:43;;;;;;;55.22;16.08;;;;;;;;;;5036250;28;20025;-89
2021/10/19 11:29:08;;;;;;;35.17;13.43;;;;;;;;;;5042712;28;20527;-90
2021/10/19 11:31:34;;;;;;;40.92;14.13;;;;;;;;;;5036729;28;20049;-90
2021/10/19 11:34:00;;;;;;;39.40;14.23;;;;;;;;;;5035300;28;20079;-90
2021/10/19 11:36:25;;;;;;;36.33;13.80;;;;;;;;;;5035393;28;20125;-90
2021/10/19 11:38:52;;;;;;;43.90;13.65;;;;;;;;;;5034445;28;20389;-89
2021/10/19 11:41:22;;;;;;;33.22;13.50;;;;;;;;;;5028070;28;20022;-89
2021/10/19 11:43:51;;;;;;;33.47;13.05;;;;;;;;;;5028790;28;20528;-90
2021/10/19 11:46:19;;;;;;;35.80;12.27;;;;;;;;;;5035058;28;20048;-90
2021/10/19 11:48:46;;;;;;;30.10;11.02;;;;;;;;;;5026539;28;20535;-90
2021/10/19 11:51:12;;;;;;;30.20;12.23;;;;;;;;;;5047291;28;20499;-90
2021/10/19 11:53:44;;;;;;;31.92;11.48;;;;;;;;;;5034812;28;20025;-90
2021/10/19 11:56:10;;;;;;;33.47;11.35;;;;;;;;;;5034957;28;20026;-90
2021/10/19 11:58:35;;;;;;;24.92;9.50;;;;;;;;;;5034472;28;20032;-90
2021/10/19 12:01:01;;;;;;;28.17;11.65;;;;;;;;;;5034907;28;20013;-90
2021/10/19 12:03:32;;;;;;;29.98;11.32;;;;;;;;;;5034483;28;20019;-90
2021/10/19 12:05:58;;;;;;;26.88;11.52;;;;;;;;;;5035692;28;20433;-90
2021/10/19 12:08:31;;;;;;;30.40;11.10;;;;;;;;;;5034576;28;20057;-90
2021/10/19 12:10:56;;;;;;;35.95;12.18;;;;;;;;;;5034583;28;20014;-90
2021/10/19 12:13:25;;;;;;;33.78;11.45;;;;;;;;;;5034338;28;20075;-89
2021/10/19 12:15:55;;;;;;;30.75;11.95;;;;;;;;;;5034477;28;20420;-89
2021/10/19 12:18:20;;;;;;;32.88;12.90;;;;;;;;;;5034216;28;20033;-90
2021/10/19 12:20:46;;;;;;;38.33;12.85;;;;;;;;;;5035352;28;20025;-89
2021/10/19 12:23:12;;;;;;;30.33;12.10;;;;;;;;;;5023660;28;20025;-90
2021/10/19 12:25:38;;;;;;;34.53;11.32;;;;;;;;;;5033425;28;20095;-90
2021/10/19 12:28:04;;;;;;;28.40;11.73;;;;;;;;;;5034473;28;20021;-90
2021/10/19 12:30:36;;;;;;;33.20;12.52;;;;;;;;;;5032076;28;20159;-90
2021/10/19 12:33:07;;;;;;;32.55;11.45;;;;;;;;;;5023282;28;20054;-90
2021/10/19 12:35:33;;;;;;;35.73;12.13;;;;;;;;;;5033722;28;20029;-89
2021/10/19 12:37:58;;;;;;;30.52;11.88;;;;;;;;;;5033883;28;20104;-90
2021/10/19 12:40:23;;;;;;;36.60;13.00;;;;;;;;;;5034074;28;20025;-89
2021/10/19 12:42:49;;;;;;;39.13;14.85;;;;;;;;;;5033779;28;20120;-89
2021/10/19 12:45:14;;;;;;;43.90;12.77;;;;;;;;;;5033795;28;20106;-89
2021/10/19 12:47:39;;;;;;;40.42;14.15;;;;;;;;;;5033839;28;20025;-90
2021/10/19 12:50:05;;;;;;;33.13;13.00;;;;;;;;;;5034864;28;20026;-91
2021/10/19 12:52:30;;;;;;;38.60;14.10;;;;;;;;;;5034340;28;20112;-90
2021/10/19 12:54:55;;;;;;;33.47;12.90;;;;;;;;;;5033620;28;20437;-90
2021/10/19 12:57:20;;;;;;;39.15;13.45;;;;;;;;;;5034564;28;20440;-90
2021/10/19 12:59:46;;;;;;;36.70;12.70;;;;;;;;;;5033210;28;20531;-90
2021/10/19 13:02:11;;;;;;;38.42;12.98;;;;;;;;;;5033591;28;20032;-90
2021/10/19 13:04:37;;;;;;;32.50;12.60;;;;;;;;;;5033474;28;20116;-90
2021/10/19 13:07:03;;;;;;;40.67;14.43;;;;;;;;;;5033533;28;20025;-91
2021/10/19 13:09:29;;;;;;;39.13;13.40;;;;;;;;;;5033606;28;20112;-91
2021/10/19 13:11:54;;;;;;;42.72;12.32;;;;;;;;;;5066619;28;20539;-90
2021/10/19 13:14:20;;;;;;;36.08;12.07;;;;;;;;;;5033339;28;20033;-89
2021/10/19 13:16:45;;;;;;;30.88;11.82;;;;;;;;;;5034367;28;20053;-90
2021/10/19 13:19:10;;;;;;;41.30;13.20;;;;;;;;;;5034624;28;20021;-90
2021/10/19 13:21:35;;;;;;;38.85;12.77;;;;;;;;;;5034326;28;20576;-90
2021/10/19 13:24:01;;;;;;;45.28;13.10;;;;;;;;;;5033173;28;20032;-90
2021/10/19 13:26:26;;;;;;;40.28;13.73;;;;;;;;;;5033112;28;20466;-89
2021/10/19 13:28:52;;;;;;;38.58;13.25;;;;;;;;;;5034168;28;20033;-90
2021/10/19 13:31:17;;;;;;;47.80;15.82;;;;;;;;;;5033398;28;20063;-90
2021/10/19 13:33:42;;;;;;;51.40;15.63;;;;;;;;;;5033038;28;20078;-90
2021/10/19 13:36:08;;;;;;;45.05;14.35;;;;;;;;;;5033291;28;20071;-90
2021/10/19 13:38:33;;;;;;;55.00;14.02;;;;;;;;;;5033064;28;20049;-90
2021/10/19 13:40:59;;;;;;;44.13;14.15;;;;;;;;;;5033161;28;20017;-90
2021/10/19 13:43:25;;;;;;;50.17;14.85;;;;;;;;;;5026782;28;20461;-90
2021/10/19 13:45:51;;;;;;;52.80;15.02;;;;;;;;;;5025858;28;20032;-89
2021/10/19 13:48:17;;;;;;;47.67;15.18;;;;;;;;;;5032869;28;20014;-90
2021/10/19 13:50:42;;;;;;;46.85;14.48;;;;;;;;;;5033024;28;20477;-89
2021/10/19 13:53:08;;;;;;;56.33;15.50;;;;;;;;;;5033114;28;20388;-90
2021/10/19 13:55:33;;;;;;;46.00;12.93;;;;;;;;;;5033665;28;20075;-90
2021/10/19 13:57:59;;;;;;;44.10;12.25;;;;;;;;;;5032686;28;20032;-90
2021/10/19 14:00:24;;;;;;;45.65;14.50;;;;;;;;;;5033291;28;20384;-91
2021/10/19 14:02:49;;;;;;;41.35;13.85;;;;;;;;;;5034551;28;20088;-90
2021/10/19 14:05:15;;;;;;;44.30;13.45;;;;;;;;;;5038665;28;20005;-90
2021/10/19 14:07:40;;;;;;;51.97;15.00;;;;;;;;;;5039700;28;20416;-90
2021/10/19 14:10:06;;;;;;;47.97;14.98;;;;;;;;;;5037343;28;20108;-89
2021/10/19 14:12:31;;;;;;;43.53;12.18;;;;;;;;;;5037381;28;20083;-91
2021/10/19 14:14:57;;;;;;;45.67;13.75;;;;;;;;;;5037316;28;20026;-90
2021/10/19 14:17:22;;;;;;;38.28;12.18;;;;;;;;;;5036995;28;20022;-90
2021/10/19 14:19:49;;;;;;;35.95;11.82;;;;;;;;;;5036760;28;20032;-90
2021/10/19 14:22:15;;;;;;;29.98;10.65;;;;;;;;;;5036519;28;20021;-90